Time;durP1;ratioP1;P1;durP2;ratioP2;P2;SDS_P1;SDS_P2;PMS_P1;PMS_P2;Temp;Humidity;BMP_temperature;BMP_pressure;BME280_temperature;BME280_humidity;BME280_pressure;Samples;Min_cycle;Max_cycle;Signal;HPM_P1;HPM_P2
2022/12/06 00:02:07;;;;;;;9.67;7.50;;;;;;;7.22;93.90;95511.16;5112543;28;20611;-78
2022/12/06 00:04:35;;;;;;;14.10;7.80;;;;;;;7.13;94.12;95520.41;5112673;28;20498;-78
2022/12/06 00:07:02;;;;;;;10.07;7.07;;;;;;;7.10;94.26;95517.16;5112432;28;20526;-79
2022/12/06 00:09:31;;;;;;;7.20;6.13;;;;;;;7.08;94.64;95516.41;5112491;28;20445;-78
2022/12/06 00:11:59;;;;;;;7.33;6.30;;;;;;;7.05;95.45;95501.78;5112587;28;20461;-79
2022/12/06 00:14:26;;;;;;;10.07;7.47;;;;;;;7.07;95.31;95499.91;5112303;28;20959;-78
2022/12/06 00:16:53;;;;;;;10.10;7.90;;;;;;;7.08;95.34;95500.75;5112409;28;20453;-78
2022/12/06 00:19:22;;;;;;;11.50;7.87;;;;;;;7.09;95.22;95494.59;5093159;28;20455;-78
2022/12/06 00:21:50;;;;;;;10.10;7.67;;;;;;;7.06;94.89;95492.19;5112129;28;21011;-78
2022/12/06 00:24:19;;;;;;;9.90;8.10;;;;;;;7.04;95.17;95494.03;5112397;28;20508;-78
2022/12/06 00:26:48;;;;;;;10.97;8.43;;;;;;;7.01;94.63;95489.84;5112274;28;20955;-78
2022/12/06 00:29:16;;;;;;;13.73;8.10;;;;;;;6.95;95.19;95487.63;5112593;28;20445;-79
2022/12/06 00:31:43;;;;;;;10.67;8.70;;;;;;;6.98;95.20;95495.25;5112484;28;20993;-78
2022/12/06 00:34:10;;;;;;;11.70;7.77;;;;;;;6.97;94.98;95498.81;5112458;28;20458;-78
2022/12/06 00:36:39;;;;;;;11.30;8.07;;;;;;;6.94;94.75;95492.91;5076381;28;20433;-79
2022/12/06 00:39:10;;;;;;;11.57;8.50;;;;;;;6.91;94.76;95495.69;5112582;28;20445;-78
2022/12/06 00:41:37;;;;;;;16.83;7.57;;;;;;;6.89;94.57;95497.56;5112244;28;20468;-78
2022/12/06 00:44:04;;;;;;;12.00;8.10;;;;;;;6.84;94.39;95493.47;5115269;28;20480;-78
2022/12/06 00:46:32;;;;;;;12.03;8.50;;;;;;;6.81;94.23;95493.66;5116694;28;20437;-78
2022/12/06 00:49:01;;;;;;;11.50;7.93;;;;;;;6.79;94.47;95492.06;5116891;28;20439;-79
2022/12/06 00:51:30;;;;;;;8.37;6.93;;;;;;;6.75;94.93;95487.97;5116481;28;20479;-79
2022/12/06 00:53:57;;;;;;;9.13;6.83;;;;;;;6.67;95.23;95490.22;5116290;28;20447;-79
2022/12/06 00:56:26;;;;;;;12.23;7.60;;;;;;;6.60;95.95;95488.88;5116380;28;20529;-79
2022/12/06 00:58:53;;;;;;;11.13;7.20;;;;;;;6.61;96.24;95486.19;5116277;28;20437;-79
2022/12/06 01:01:22;;;;;;;10.50;6.70;;;;;;;6.64;97.02;95479.94;5116199;28;20433;-79
2022/12/06 01:03:51;;;;;;;9.90;7.07;;;;;;;6.67;96.66;95477.19;5116366;28;20507;-79
2022/12/06 01:06:19;;;;;;;11.87;7.27;;;;;;;6.72;96.17;95477.75;5080094;28;20435;-79
2022/12/06 01:08:46;;;;;;;9.60;7.47;;;;;;;6.77;95.60;95476.53;5116126;28;20445;-79
2022/12/06 01:11:15;;;;;;;11.03;6.87;;;;;;;6.82;95.69;95477.09;5116369;28;20494;-79
2022/12/06 01:13:43;;;;;;;9.60;6.37;;;;;;;6.87;95.26;95481.16;5116104;28;20452;-79
2022/12/06 01:16:13;;;;;;;11.13;6.50;;;;;;;6.89;95.22;95479.31;5116146;28;20446;-79
2022/12/06 01:18:40;;;;;;;10.30;6.90;;;;;;;6.88;95.40;95477.63;5115943;28;20442;-80
2022/12/06 01:21:09;;;;;;;13.13;7.00;;;;;;;6.90;94.91;95476.59;5115644;28;20467;-79
2022/12/06 01:23:36;;;;;;;8.30;6.33;;;;;;;6.91;95.46;95470.44;5116065;28;20456;-80
2022/12/06 01:26:03;;;;;;;12.37;7.20;;;;;;;6.95;95.55;95471.13;5115882;28;20451;-80
2022/12/06 01:28:30;;;;;;;8.43;7.10;;;;;;;6.96;94.86;95473.66;5115762;28;20446;-79
2022/12/06 01:30:58;;;;;;;9.20;7.27;;;;;;;6.96;94.73;95472.81;5115942;28;20856;-79
2022/12/06 01:33:25;;;;;;;10.80;7.40;;;;;;;6.92;94.76;95466.91;5115625;28;20437;-79
2022/12/06 01:35:52;;;;;;;9.20;7.23;;;;;;;6.93;95.86;95465.13;5115629;28;20456;-79
2022/12/06 01:38:19;;;;;;;8.80;7.27;;;;;;;6.88;96.38;95460.22;5115451;28;20445;-80
2022/12/06 01:40:47;;;;;;;10.03;8.07;;;;;;;6.88;96.41;95461.97;5115740;28;20446;-79
2022/12/06 01:43:35;;;;;;;11.33;7.57;;;;;;;6.90;97.35;95460.13;5115685;28;20446;-79
2022/12/06 01:46:12;;;;;;;8.63;7.13;;;;;;;6.93;97.06;95457.31;5115519;28;20923;-80
2022/12/06 01:48:40;;;;;;;12.30;7.57;;;;;;;6.98;96.78;95452.69;5115384;28;20444;-80
2022/12/06 01:51:09;;;;;;;7.83;6.57;;;;;;;6.96;96.77;95451.94;5115438;28;20447;-80
2022/12/06 01:53:37;;;;;;;8.60;6.63;;;;;;;7.03;96.67;95455.84;5114875;28;20523;-79
2022/12/06 01:56:05;;;;;;;9.40;6.30;;;;;;;7.04;96.12;95453.13;5115190;28;20456;-80
2022/12/06 01:58:37;;;;;;;8.63;6.87;;;;;;;7.04;96.27;95447.06;5114857;28;20452;-79
2022/12/06 02:01:06;;;;;;;8.80;6.60;;;;;;;7.09;96.39;95450.22;5114887;28;20441;-80
2022/12/06 02:03:34;;;;;;;6.40;4.80;;;;;;;7.04;96.44;95445.31;5115393;28;20446;-80
2022/12/06 02:06:03;;;;;;;7.40;5.40;;;;;;;7.00;96.26;95448.19;5114734;28;20564;-80
2022/12/06 02:08:31;;;;;;;8.00;5.93;;;;;;;6.98;95.87;95444.84;5114863;28;20442;-79
2022/12/06 02:11:01;;;;;;;8.97;5.97;;;;;;;6.93;95.97;95439.06;5114751;28;20456;-79
2022/12/06 02:13:28;;;;;;;8.37;6.17;;;;;;;6.86;95.79;95429.94;5114760;28;20812;-79
2022/12/06 02:16:07;;;;;;;5.87;5.30;;;;;;;6.79;95.45;95439.91;5114622;28;20846;-79
2022/12/06 02:18:45;;;;;;;9.10;5.97;;;;;;;6.73;96.19;95432.47;5115040;28;20438;-79
2022/12/06 02:21:20;;;;;;;11.40;6.73;;;;;;;6.75;96.70;95439.25;5114308;28;20481;-79
2022/12/06 02:24:27;;;;;;;10.10;6.50;;;;;;;6.80;97.26;95432.00;5114071;28;20847;-79
2022/12/06 02:27:05;;;;;;;8.73;6.70;;;;;;;6.83;96.53;95426.59;5051330;28;20447;-79
2022/12/06 02:29:58;;;;;;;8.03;6.17;;;;;;;6.97;96.21;95430.13;5051223;28;20452;-79
2022/12/06 02:32:34;;;;;;;11.13;6.13;;;;;;;7.03;96.28;95430.59;5051365;28;20474;-79
2022/12/06 02:35:09;;;;;;;7.07;5.43;;;;;;;6.98;96.14;95418.75;5051435;28;20524;-79
2022/12/06 02:37:42;;;;;;;7.67;5.67;;;;;;;6.98;95.47;95418.75;5051259;28;20446;-79
2022/12/06 02:40:14;;;;;;;7.80;6.20;;;;;;;6.98;95.51;95408.31;5051128;28;20762;-79
2022/12/06 02:42:47;;;;;;;8.20;6.40;;;;;;;6.94;96.11;95412.03;5050831;28;20443;-79
2022/12/06 02:45:18;;;;;;;6.63;5.67;;;;;;;6.98;96.33;95403.94;5051023;28;20484;-80
2022/12/06 02:47:49;;;;;;;7.00;5.60;;;;;;;7.04;96.48;95400.09;5050878;28;20440;-80
2022/12/06 02:50:19;;;;;;;10.47;6.00;;;;;;;7.09;96.08;95405.88;5033892;28;20958;-80
2022/12/06 02:52:49;;;;;;;8.27;6.80;;;;;;;7.09;95.76;95398.88;5050755;28;20475;-80
2022/12/06 02:55:18;;;;;;;9.00;5.93;;;;;;;7.10;95.00;95407.53;5051029;28;20532;-80
2022/12/06 02:57:48;;;;;;;8.07;6.10;;;;;;;7.09;95.30;95408.47;5050701;28;20479;-80
2022/12/06 03:00:31;;;;;;;7.47;6.17;;;;;;;7.10;95.05;95407.53;5050640;28;20445;-80
2022/12/06 03:03:16;;;;;;;6.70;5.30;;;;;;;7.14;95.26;95406.41;5050508;28;20445;-80
2022/12/06 03:06:05;;;;;;;10.43;6.87;;;;;;;7.09;95.15;95401.50;5112679;28;20483;-80
2022/12/06 03:08:41;;;;;;;9.83;7.27;;;;;;;7.09;96.67;95401.50;5113676;28;20451;-80
2022/12/06 03:11:08;;;;;;;8.10;6.43;;;;;;;7.14;96.27;95395.97;5113378;28;20502;-80
2022/12/06 03:13:46;;;;;;;12.33;8.00;;;;;;;7.20;95.93;95405.19;5113545;28;20924;-80
2022/12/06 03:16:22;;;;;;;9.43;7.43;;;;;;;7.21;96.28;95407.69;5113437;28;20458;-77
2022/12/06 03:18:58;;;;;;;8.70;6.87;;;;;;;7.26;96.40;95410.03;5094259;28;20449;-79
2022/12/06 03:21:32;;;;;;;9.93;6.37;;;;;;;7.22;95.73;95406.75;5113227;28;20538;-79
2022/12/06 03:23:59;;;;;;;10.67;6.70;;;;;;;7.18;96.03;95402.66;5113123;28;20452;-79
2022/12/06 03:26:30;;;;;;;15.93;7.37;;;;;;;7.19;96.13;95399.13;5112980;28;20955;-79
2022/12/06 03:29:00;;;;;;;10.10;6.63;;;;;;;7.24;96.23;95406.69;5113526;28;20499;-79
2022/12/06 03:31:30;;;;;;;8.00;6.10;;;;;;;7.22;96.21;95404.16;5113055;28;20442;-79
2022/12/06 03:34:03;;;;;;;6.47;5.33;;;;;;;7.21;96.20;95406.84;5112937;28;20453;-79
2022/12/06 03:36:31;;;;;;;9.37;6.03;;;;;;;7.18;95.77;95397.44;5112831;28;20475;-79
2022/12/06 03:39:01;;;;;;;8.93;5.73;;;;;;;7.15;95.89;95402.88;5112816;28;20442;-79
2022/12/06 03:41:32;;;;;;;8.43;6.23;;;;;;;7.13;96.18;95397.75;5093572;28;20441;-79
2022/12/06 03:43:59;;;;;;;7.30;5.87;;;;;;;7.15;96.42;95393.25;5112770;28;20442;-79
2022/12/06 03:46:31;;;;;;;5.70;5.03;;;;;;;7.11;96.37;95394.41;5060449;28;20512;-79
2022/12/06 03:49:04;;;;;;;10.00;6.00;;;;;;;7.10;96.45;95387.50;5112710;28;20437;-79
2022/12/06 03:51:33;;;;;;;8.83;6.10;;;;;;;7.07;97.60;95397.31;5112497;28;20967;-79
2022/12/06 03:54:03;;;;;;;7.80;6.43;;;;;;;7.10;98.00;95389.28;5112892;28;20859;-79
2022/12/06 03:56:30;;;;;;;9.33;6.50;;;;;;;7.14;97.54;95385.53;5112740;28;20439;-79
2022/12/06 03:58:57;;;;;;;9.50;6.67;;;;;;;7.19;97.46;95383.47;5112451;28;20449;-79
2022/12/06 04:01:24;;;;;;;6.40;5.60;;;;;;;7.24;97.40;95381.44;5112483;28;20438;-79
2022/12/06 04:03:51;;;;;;;10.57;6.07;;;;;;;7.29;97.43;95376.75;5060356;28;20450;-79
2022/12/06 04:06:19;;;;;;;7.93;5.60;;;;;;;7.31;96.78;95381.88;5112560;28;20527;-79
2022/12/06 04:08:45;;;;;;;7.20;6.00;;;;;;;7.33;96.65;95380.00;5112654;28;20442;-83
2022/12/06 04:11:13;;;;;;;9.50;6.87;;;;;;;7.28;96.53;95374.22;5112656;28;20442;-78
2022/12/06 04:13:39;;;;;;;7.83;6.03;;;;;;;7.31;96.46;95376.66;5114076;28;20494;-79
2022/12/06 04:18:09;;;;;;;10.27;6.17;;;;;;;7.32;96.72;95373.94;5061792;28;20964;-79
2022/12/06 04:18:53;;;;;;;7.17;6.37;;;;;;;7.24;96.15;95381.44;5084173;28;20916;-78
2022/12/06 04:24:06;;;;;;;6.63;5.87;;;;;;;7.19;96.72;95385.25;5113928;28;20559;-78
2022/12/06 04:26:33;;;;;;;8.87;6.60;;;;;;;7.18;96.24;95376.56;5113669;28;20530;-79
2022/12/06 04:39:57;;;;;;;11.60;8.50;;;;;;;7.27;97.95;95380.38;5113488;28;20429;-84
2022/12/06 04:45:09;;;;;;;7.70;7.00;;;;;;;7.36;97.07;95388.47;5113273;28;20489;-78
2022/12/06 04:47:36;;;;;;;13.00;8.33;;;;;;;7.43;96.86;95394.13;5113107;28;20556;-78
2022/12/06 04:50:03;;;;;;;11.40;7.90;;;;;;;7.50;96.48;95390.16;5113764;28;20458;-80
2022/12/06 04:52:31;;;;;;;18.60;10.43;;;;;;;9.09;100.00;95374.16;5061517;28;20454;-81
2022/12/06 04:54:58;;;;;;;12.90;7.50;;;;;;;8.71;100.00;95393.41;5113217;28;20853;-82
2022/12/06 04:57:24;;;;;;;10.83;6.83;;;;;;;8.58;95.99;95388.16;5113420;28;20446;-79
2022/12/06 04:59:51;;;;;;;9.63;7.23;;;;;;;8.52;93.08;95393.81;5113320;28;20446;-80
2022/12/06 05:02:18;;;;;;;13.10;6.10;;;;;;;8.44;92.69;95390.91;5113491;28;20446;-79
2022/12/06 05:04:45;;;;;;;11.67;7.10;;;;;;;8.31;91.62;95395.25;5113686;28;20459;-79
2022/12/06 05:07:12;;;;;;;8.63;7.10;;;;;;;8.21;92.28;95396.81;5113526;28;20450;-79
2022/12/06 05:09:40;;;;;;;8.60;6.63;;;;;;;8.14;92.14;95395.56;5113793;28;20432;-80
2022/12/06 05:12:07;;;;;;;14.07;7.67;;;;;;;8.09;91.89;95395.84;5113123;28;20450;-80
2022/12/06 05:14:34;;;;;;;16.40;7.90;;;;;;;8.07;92.40;95395.94;5112751;28;20953;-79
2022/12/06 05:17:01;;;;;;;12.90;8.47;;;;;;;8.06;93.28;95396.06;5113516;28;20500;-79
2022/12/06 05:19:28;;;;;;;8.60;7.20;;;;;;;8.03;93.18;95401.50;5113719;28;20454;-80
2022/12/06 05:21:55;;;;;;;150.17;96.23;;;;;;;9.93;100.00;95384.59;5113269;28;20489;-83
2022/12/06 05:24:22;;;;;;;37.17;19.57;;;;;;;11.56;89.56;95398.16;5113146;28;20438;-83
2022/12/06 05:26:50;;;;;;;13.73;8.80;;;;;;;13.11;77.71;95401.88;5113229;28;20464;-83
2022/12/06 05:29:17;;;;;;;8.20;6.53;;;;;;;13.02;74.55;95406.16;5114367;28;20446;-81
2022/12/06 05:31:44;;;;;;;13.30;7.20;;;;;;;12.52;72.26;95402.56;5116694;28;20439;-79
2022/12/06 05:34:11;;;;;;;11.47;8.13;;;;;;;11.97;73.02;95394.00;5116207;28;20454;-79
2022/12/06 05:36:38;;;;;;;13.30;7.20;;;;;;;11.22;74.77;95400.00;5116539;28;20480;-80
2022/12/06 05:39:04;;;;;;;28.77;10.97;;;;;;;10.44;79.41;95400.84;5116482;28;20465;-79
2022/12/06 05:41:31;;;;;;;16.73;9.50;;;;;;;10.02;80.22;95391.75;5116595;28;20451;-81
2022/12/06 05:43:59;;;;;;;19.47;11.57;;;;;;;9.56;83.34;95389.91;5116347;28;20581;-79
2022/12/06 05:46:26;;;;;;;24.20;11.33;;;;;;;9.31;84.47;95393.47;5116290;28;20484;-81
2022/12/06 05:48:53;;;;;;;21.27;11.37;;;;;;;9.00;86.21;95383.50;5116204;28;20815;-80
2022/12/06 05:51:20;;;;;;;13.73;9.93;;;;;;;8.72;86.86;95379.38;5116332;28;20455;-80
2022/12/06 05:53:47;;;;;;;10.73;8.03;;;;;;;8.47;87.91;95375.00;5116347;28;20447;-81
2022/12/06 05:56:13;;;;;;;10.47;7.80;;;;;;;8.21;88.86;95378.53;5102045;28;20455;-81
2022/12/06 05:58:40;;;;;;;10.13;6.63;;;;;;;8.12;89.71;95369.53;5094035;28;20845;-80
2022/12/06 06:01:09;;;;;;;9.90;7.17;;;;;;;8.05;90.72;95374.31;5075001;28;20490;-80
2022/12/06 06:03:37;;;;;;;15.20;7.87;;;;;;;8.03;91.42;95376.19;5093791;28;20450;-79
2022/12/06 06:06:04;;;;;;;14.53;7.80;;;;;;;8.05;92.34;95374.31;5095142;28;20488;-80
2022/12/06 06:08:31;;;;;;;13.83;9.17;;;;;;;7.97;92.66;95371.38;5042157;28;20960;-79
2022/12/06 06:10:58;;;;;;;22.20;9.83;;;;;;;8.05;92.87;95376.09;5094184;28;20444;-80
2022/12/06 06:13:25;;;;;;;17.50;10.83;;;;;;;8.03;93.61;95381.41;5094735;28;20444;-80
2022/12/06 06:15:52;;;;;;;16.53;10.70;;;;;;;8.05;92.90;95381.31;5094526;28;20451;-80
2022/12/06 06:18:20;;;;;;;17.90;9.17;;;;;;;8.00;93.48;95381.63;5094648;28;20460;-80
2022/12/06 06:20:52;;;;;;;13.30;8.10;;;;;;;7.96;93.40;95382.78;5094757;28;20455;-79
2022/12/06 06:23:19;;;;;;;20.97;7.87;;;;;;;7.87;92.84;95386.00;5042355;28;20443;-81
2022/12/06 06:25:46;;;;;;;8.73;5.80;;;;;;;7.89;92.38;95378.06;5094295;28;20868;-82
2022/12/06 06:28:13;;;;;;;8.37;6.43;;;;;;;7.92;92.47;95378.69;5096978;28;20814;-80
2022/12/06 06:30:40;;;;;;;11.67;7.00;;;;;;;7.86;93.29;95370.44;5063014;28;20450;-80
2022/12/06 06:33:07;;;;;;;11.07;7.50;;;;;;;7.82;93.53;95367.19;5115724;28;20455;-81
2022/12/06 06:35:38;;;;;;;10.17;8.20;;;;;;;7.90;94.11;95375.34;5115615;28;20450;-79
2022/12/06 06:38:05;;;;;;;14.43;10.10;;;;;;;8.00;93.31;95380.78;5115201;28;20794;-79
2022/12/06 06:40:32;;;;;;;14.50;7.20;;;;;;;8.03;92.20;95381.41;5114926;28;20454;-78
2022/12/06 06:43:16;;;;;;;11.00;6.60;;;;;;;8.09;92.46;95380.16;5115218;28;20446;-79
2022/12/06 06:45:44;;;;;;;10.20;6.67;;;;;;;8.17;91.86;95379.66;5118471;27;20492;-80
2022/12/06 06:48:11;;;;;;;8.77;6.57;;;;;;;8.18;92.22;95370.88;5134969;27;20452;-80
2022/12/06 06:50:39;;;;;;;7.97;6.70;;;;;;;8.16;92.52;95376.22;5117363;27;20468;-80
2022/12/06 06:53:06;;;;;;;9.63;7.07;;;;;;;8.13;92.40;95380.81;5101051;28;20526;-79
2022/12/06 06:55:34;;;;;;;9.03;7.73;;;;;;;8.14;91.83;95370.25;5108840;28;20490;-80
2022/12/06 06:58:01;;;;;;;8.17;6.50;;;;;;;8.12;91.03;95377.38;5106375;28;20450;-79
2022/12/06 07:00:28;;;;;;;9.30;6.40;;;;;;;7.97;91.21;95360.94;5096306;28;20455;-80
2022/12/06 07:02:54;;;;;;;9.23;6.27;;;;;;;8.03;91.23;95370.13;5112182;28;20503;-79
2022/12/06 07:05:21;;;;;;;12.80;6.60;;;;;;;7.98;91.69;95367.00;5113697;28;20494;-79
2022/12/06 07:07:49;;;;;;;11.10;6.50;;;;;;;7.97;92.00;95358.31;5095403;28;20439;-78
2022/12/06 07:10:16;;;;;;;11.33;7.63;;;;;;;8.00;92.28;95362.50;5114794;28;20438;-79
2022/12/06 07:12:43;;;;;;;9.97;7.23;;;;;;;7.98;92.62;95356.53;5114699;28;20450;-81
2022/12/06 07:15:11;;;;;;;9.57;7.17;;;;;;;7.94;92.87;95360.31;5102742;27;20775;-80
2022/12/06 07:17:38;;;;;;;11.00;7.97;;;;;;;8.04;92.41;95356.13;5064275;28;20530;-81
2022/12/06 07:20:07;;;;;;;9.80;8.00;;;;;;;8.14;91.96;95362.41;5114690;28;20466;-80
2022/12/06 07:22:34;;;;;;;13.73;7.13;;;;;;;8.22;91.68;95365.34;5096555;28;20551;-80
2022/12/06 07:25:02;;;;;;;12.03;6.43;;;;;;;8.29;91.08;95366.59;5107992;28;20450;-79
2022/12/06 07:27:28;;;;;;;12.83;7.37;;;;;;;8.36;90.72;95372.25;5113718;28;20492;-80
2022/12/06 07:29:55;;;;;;;12.40;7.90;;;;;;;8.49;90.34;95378.34;5062096;28;20443;-80
2022/12/06 07:32:22;;;;;;;13.73;8.20;;;;;;;8.57;90.51;95367.34;5095943;28;20814;-81
2022/12/06 07:34:52;;;;;;;12.97;7.03;;;;;;;8.61;90.41;95376.66;5114268;28;20935;-79
2022/12/06 07:37:19;;;;;;;8.33;6.53;;;;;;;8.61;89.98;95380.09;5114587;28;20446;-83
2022/12/06 07:39:46;;;;;;;10.87;7.73;;;;;;;8.63;89.84;95375.59;5114572;28;20490;-79
2022/12/06 07:45:01;;;;;;;11.90;8.43;;;;;;;8.76;89.53;95366.91;5114241;28;20827;-79
2022/12/06 07:47:33;;;;;;;10.03;7.80;;;;;;;8.85;88.68;95364.47;5113858;28;20493;-81
2022/12/06 07:50:00;;;;;;;16.20;9.20;;;;;;;8.87;88.20;95361.75;5110495;28;20482;-81
2022/12/06 07:52:31;;;;;;;11.33;8.03;;;;;;;8.93;88.32;95362.16;5108429;28;20452;-79
2022/12/06 07:54:58;;;;;;;14.33;9.20;;;;;;;9.06;88.38;95369.97;5092722;28;20432;-79
2022/12/06 07:57:26;;;;;;;16.00;9.37;;;;;;;9.20;87.64;95359.34;5093632;28;20447;-82
2022/12/06 07:59:54;;;;;;;22.57;9.80;;;;;;;9.23;87.82;95364.34;5093375;28;20866;-79
2022/12/06 08:02:22;;;;;;;17.63;9.50;;;;;;;9.34;86.87;95360.16;5093606;28;20447;-79
2022/12/06 08:04:49;;;;;;;14.57;9.43;;;;;;;9.39;86.97;95356.25;5093435;28;20494;-79
2022/12/06 08:07:16;;;;;;;24.13;9.67;;;;;;;9.51;86.76;95357.13;5040333;28;20998;-79
2022/12/06 08:09:43;;;;;;;13.13;8.60;;;;;;;9.56;86.93;95362.88;5056547;28;20428;-78
2022/12/06 08:12:10;;;;;;;11.93;7.73;;;;;;;9.58;86.05;95366.22;5092565;28;20436;-78
2022/12/06 08:14:38;;;;;;;11.60;8.17;;;;;;;9.54;85.85;95370.00;5092269;28;20786;-79
2022/12/06 08:17:06;;;;;;;18.63;8.90;;;;;;;9.53;85.93;95366.53;5091780;28;20448;-78
2022/12/06 08:19:33;;;;;;;13.10;9.50;;;;;;;9.53;85.76;95370.94;5091989;28;21049;-79
2022/12/06 08:22:00;;;;;;;19.83;9.73;;;;;;;9.50;85.20;95361.53;5091954;28;20521;-79
2022/12/06 08:24:27;;;;;;;12.77;9.60;;;;;;;9.55;85.55;95361.22;5091899;28;20947;-79
2022/12/06 08:26:53;;;;;;;13.97;8.27;;;;;;;9.62;85.55;95365.06;5092184;28;20826;-79
2022/12/06 08:29:20;;;;;;;18.60;9.40;;;;;;;9.75;84.77;95363.19;5092083;28;20464;-79
2022/12/06 08:31:49;;;;;;;20.90;10.73;;;;;;;9.82;84.85;95361.78;5092128;28;20444;-79
2022/12/06 08:34:15;;;;;;;15.27;9.83;;;;;;;9.91;84.10;95350.63;5091841;28;20947;-79
2022/12/06 08:36:43;;;;;;;14.23;9.27;;;;;;;9.94;83.20;95350.38;5092006;28;20453;-78
2022/12/06 08:39:11;;;;;;;20.20;10.20;;;;;;;9.94;82.61;95357.41;5091924;28;20449;-79
2022/12/06 08:41:58;;;;;;;12.50;8.30;;;;;;;9.71;83.26;95350.44;5091893;28;20957;-79
2022/12/06 08:44:26;;;;;;;12.40;8.30;;;;;;;9.55;83.26;95351.56;5091920;28;20448;-79
2022/12/06 08:46:55;;;;;;;16.83;8.80;;;;;;;9.65;84.72;95351.72;5091719;28;20492;-78
2022/12/06 08:49:24;;;;;;;12.97;9.17;;;;;;;9.75;84.24;95344.00;5092117;28;20498;-79
2022/12/06 08:51:51;;;;;;;15.60;9.23;;;;;;;9.81;84.24;95338.31;5092133;28;20494;-79
2022/12/06 08:54:20;;;;;;;20.63;10.47;;;;;;;9.74;84.04;95343.16;5091957;28;20779;-79
2022/12/06 08:56:47;;;;;;;13.70;10.07;;;;;;;9.87;83.67;95337.88;5091945;28;20450;-79
2022/12/06 08:59:14;;;;;;;12.77;7.73;;;;;;;9.70;82.96;95339.09;5091821;28;20937;-79
2022/12/06 09:01:42;;;;;;;10.40;6.67;;;;;;;9.81;82.64;95333.91;5091841;28;20452;-79
2022/12/06 09:04:11;;;;;;;7.67;6.40;;;;;;;9.87;82.74;95335.25;5057355;28;20439;-79
2022/12/06 09:06:39;;;;;;;11.07;6.77;;;;;;;9.85;83.16;95337.97;5095387;28;20990;-78
2022/12/06 09:09:07;;;;;;;11.83;7.30;;;;;;;9.79;82.66;95333.16;5095920;28;20496;-79
2022/12/06 09:11:34;;;;;;;10.10;6.60;;;;;;;9.74;83.93;95329.22;5095345;28;20965;-78
2022/12/06 09:14:00;;;;;;;11.30;6.80;;;;;;;9.72;83.53;95329.34;5095403;28;20502;-79
2022/12/06 09:16:27;;;;;;;9.40;6.47;;;;;;;9.73;83.74;95320.53;5095189;28;20440;-78
2022/12/06 09:18:57;;;;;;;12.73;8.97;;;;;;;9.63;84.31;95314.31;5095483;28;20450;-79
2022/12/06 09:21:28;;;;;;;8.93;6.87;;;;;;;9.58;83.52;95306.81;5095305;28;20478;-78
2022/12/06 09:23:55;;;;;;;12.83;7.77;;;;;;;9.70;83.31;95305.03;5095280;28;20961;-79
2022/12/06 09:26:24;;;;;;;10.87;7.70;;;;;;;9.66;83.13;95301.00;5094939;28;20514;-78
2022/12/06 09:28:51;;;;;;;18.80;8.03;;;;;;;9.37;83.58;95297.06;5095342;28;20509;-79
2022/12/06 09:31:19;;;;;;;14.93;8.53;;;;;;;9.26;85.18;95290.00;5095332;28;20851;-78
2022/12/06 09:33:46;;;;;;;14.47;9.00;;;;;;;9.08;86.23;95289.56;5094995;28;20444;-78
2022/12/06 09:36:18;;;;;;;11.83;8.23;;;;;;;9.01;86.70;95280.47;5095261;28;20451;-78
2022/12/06 09:38:50;;;;;;;12.70;7.80;;;;;;;8.89;86.73;95266.47;5059038;28;20838;-79
2022/12/06 09:41:32;;;;;;;12.90;9.03;;;;;;;8.54;87.68;95269.00;5094923;28;20446;-79
2022/12/06 09:44:16;;;;;;;17.80;8.50;;;;;;;8.66;87.28;95255.03;5095147;28;20801;-78
2022/12/06 09:47:00;;;;;;;9.77;7.63;;;;;;;8.57;88.83;95245.25;5094640;28;20478;-78
2022/12/06 09:49:36;;;;;;;13.57;8.67;;;;;;;8.62;89.13;95237.06;5094601;28;20873;-78
2022/12/06 09:52:18;;;;;;;15.10;8.30;;;;;;;8.63;88.85;95236.94;5042623;28;20689;-78
2022/12/06 09:55:00;;;;;;;13.20;8.33;;;;;;;8.76;88.85;95236.94;5094457;28;20440;-79
2022/12/06 09:57:36;;;;;;;12.70;7.60;;;;;;;8.87;89.14;95234.34;5042209;28;20444;-78
2022/12/06 10:00:07;;;;;;;10.20;7.20;;;;;;;8.81;88.88;95241.81;5094295;28;20463;-78
2022/12/06 10:03:03;;;;;;;12.27;7.77;;;;;;;9.03;88.37;95231.47;5094809;28;20491;-78
2022/12/06 10:05:57;;;;;;;14.10;10.00;;;;;;;9.22;87.30;95230.94;5094371;28;20944;-79
2022/12/06 10:08:36;;;;;;;15.80;8.63;;;;;;;9.15;87.56;95225.31;5011987;28;20962;-79
2022/12/06 10:11:13;;;;;;;11.50;8.00;;;;;;;9.04;87.16;95227.91;4979243;28;20818;-79
2022/12/06 10:13:55;;;;;;;16.63;11.10;;;;;;;9.09;87.96;95225.78;4995260;28;20904;-79
2022/12/06 10:16:32;;;;;;;11.20;7.93;;;;;;;9.17;88.68;95220.81;5011745;28;20947;-79
2022/12/06 10:19:12;;;;;;;15.70;9.63;;;;;;;9.11;88.14;95205.56;5012107;28;20446;-79
2022/12/06 10:21:53;;;;;;;14.90;10.13;;;;;;;9.17;87.97;95204.25;5011620;28;20471;-79
2022/12/06 10:24:35;;;;;;;16.43;8.90;;;;;;;9.19;89.11;95199.75;5012034;28;20531;-79
2022/12/06 10:27:10;;;;;;;9.30;6.70;;;;;;;9.18;87.90;95192.84;5011686;28;20479;-79
2022/12/06 10:29:52;;;;;;;13.70;8.03;;;;;;;9.26;89.51;95196.56;5011754;28;20486;-79
2022/12/06 10:32:32;;;;;;;12.23;7.67;;;;;;;9.21;88.03;95187.38;5011606;28;20448;-79
2022/12/06 10:35:11;;;;;;;13.70;8.87;;;;;;;9.10;87.73;95190.81;5011664;28;20443;-78
2022/12/06 10:37:45;;;;;;;12.10;8.20;;;;;;;9.09;89.10;95180.44;5011733;28;20432;-79
2022/12/06 10:40:17;;;;;;;14.27;8.30;;;;;;;8.95;88.59;95182.28;5011621;28;20440;-79
2022/12/06 10:42:52;;;;;;;14.47;10.00;;;;;;;9.10;89.06;95175.09;4995068;28;20482;-79
2022/12/06 10:48:19;;;;;;;12.17;9.40;;;;;;;8.95;89.90;95174.44;5093534;28;20479;-79
2022/12/06 10:50:50;;;;;;;11.73;9.20;;;;;;;9.01;89.47;95181.03;5093495;28;20976;-79
2022/12/06 10:53:22;;;;;;;12.50;8.33;;;;;;;9.04;88.81;95179.97;5093716;28;20451;-78
2022/12/06 10:55:54;;;;;;;12.90;8.87;;;;;;;9.13;89.33;95185.34;5093558;28;20958;-79
2022/12/06 10:58:32;;;;;;;13.90;8.10;;;;;;;9.15;88.70;95186.06;5093550;28;20501;-79
2022/12/06 11:01:01;;;;;;;13.23;8.37;;;;;;;9.18;88.60;95177.97;5093200;28;20867;-80
2022/12/06 11:03:35;;;;;;;14.63;9.97;;;;;;;9.15;88.85;95178.19;5093940;28;20448;-79
2022/12/06 11:06:08;;;;;;;14.27;8.00;;;;;;;9.15;88.17;95166.91;5093238;28;20928;-79
2022/12/06 11:08:39;;;;;;;17.83;9.27;;;;;;;9.30;89.34;95153.50;5041332;28;20437;-79
2022/12/06 11:11:13;;;;;;;12.50;8.40;;;;;;;9.24;88.06;95151.31;5093317;28;20540;-79
2022/12/06 11:13:46;;;;;;;14.83;10.30;;;;;;;9.25;88.67;95149.53;5092767;28;20440;-79
2022/12/06 11:16:18;;;;;;;13.30;9.30;;;;;;;9.29;88.32;95146.59;5093251;28;20441;-79
2022/12/06 11:18:46;;;;;;;16.17;9.47;;;;;;;9.26;88.17;95138.97;5093143;28;20470;-79
2022/12/06 11:21:24;;;;;;;17.90;9.97;;;;;;;9.32;88.94;95146.34;5092754;28;20688;-79
2022/12/06 11:23:56;;;;;;;15.53;9.13;;;;;;;9.16;88.94;95132.75;5093209;28;20501;-79
2022/12/06 11:26:33;;;;;;;14.50;9.70;;;;;;;9.06;89.40;95134.41;5092242;28;20938;-79
2022/12/06 11:29:05;;;;;;;27.13;9.30;;;;;;;8.95;90.03;95121.25;5092926;28;20448;-79
2022/12/06 11:31:35;;;;;;;12.50;9.13;;;;;;;9.08;89.55;95129.88;5058123;28;20448;-79
2022/12/06 11:34:03;;;;;;;13.57;9.73;;;;;;;8.80;91.28;95119.78;5041199;28;20433;-82
2022/12/06 11:36:31;;;;;;;15.70;10.53;;;;;;;9.00;90.10;95127.00;5093953;28;20479;-79
2022/12/06 11:38:59;;;;;;;17.13;9.80;;;;;;;9.08;90.22;95119.41;5093946;28;20444;-81
2022/12/06 11:41:28;;;;;;;12.50;9.83;;;;;;;9.28;90.43;95117.91;5093937;28;20448;-83
2022/12/06 11:43:56;;;;;;;16.63;10.23;;;;;;;9.32;89.39;95114.94;5094144;28;20535;-79
2022/12/06 11:46:25;;;;;;;21.97;11.43;;;;;;;9.36;89.03;95123.38;5094280;28;20452;-81
2022/12/06 11:48:53;;;;;;;19.60;9.83;;;;;;;9.36;88.71;95125.16;5094249;28;20452;-79
2022/12/06 11:51:22;;;;;;;14.30;9.50;;;;;;;8.90;91.68;95126.00;5041154;28;20439;-78
2022/12/06 11:53:57;;;;;;;15.63;9.80;;;;;;;8.88;92.00;95115.66;5099677;28;20511;-78
2022/12/06 11:56:27;;;;;;;12.13;9.40;;;;;;;8.77;91.70;95113.00;5113668;28;20474;-78
2022/12/06 11:59:12;;;;;;;14.67;10.43;;;;;;;9.06;91.88;95116.06;5109307;28;20948;-78
2022/12/06 12:01:43;;;;;;;12.37;9.67;;;;;;;9.17;90.95;95113.47;5102034;28;20523;-78
2022/12/06 12:04:35;;;;;;;15.63;9.10;;;;;;;9.13;89.94;95112.03;5105313;28;20802;-78
2022/12/06 12:07:06;;;;;;;18.60;10.10;;;;;;;9.14;90.07;95111.09;5110920;28;20474;-78
2022/12/06 12:09:37;;;;;;;12.47;8.33;;;;;;;9.05;90.84;95103.09;5077905;28;20462;-77
2022/12/06 12:12:06;;;;;;;10.83;9.03;;;;;;;9.15;89.72;95093.59;5127336;27;20497;-79